Terminal Aerodrome Forecast
Issued by NWS Oklahoma City, OK

Home | Current Version | Previous Version | Text Only | Print | Product List | Glossary On
Versions: 1 2 3 4 5 6 7 8 9 10 11 12 13 14 15 16 17 18 19 20 21 22 23 24 25 26 27 28 29 30 31 32 33 34 35
000
FTUS44 KOUN 070221 AAD
TAFOUN
TAF AMD
KOUN 070221Z 0702/0724 16012G19KT P6SM VCTS BKN050CB
      TEMPO 0702/0704 VRB25G35KT 3/4SM +TSRA SCT005 BKN015CB OVC030
     FM070400 16012G16KT P6SM BKN050
      TEMPO 0704/0708 6SM -TSRA BKN015CB
     FM070800 17013KT P6SM OVC012
     FM071400 18018G25KT P6SM OVC015
     FM072000 18018G25KT P6SM BKN025 PROB30 0720/0724 5SM TSRA
      BKN015CB=

USA.gov is the U.S. government's official web portal to all federal, state and local government web resources and services.